createdAt,value
2019-04-19T00:00:37.005Z,9.28
2019-04-19T00:01:55.267Z,9.27
2019-04-19T00:02:58.181Z,9.26
2019-04-19T00:04:11.985Z,9.25
2019-04-19T00:05:20.060Z,9.25
2019-04-19T00:06:34.438Z,9.24
2019-04-19T00:07:47.987Z,9.24
2019-04-19T00:09:09.092Z,9.22
2019-04-19T00:10:18.353Z,9.21
2019-04-19T00:11:23.257Z,9.20
2019-04-19T00:12:35.286Z,9.18
2019-04-19T00:13:36.766Z,9.15
2019-04-19T00:14:46.621Z,9.14
2019-04-19T00:15:58.448Z,9.11
2019-04-19T00:17:13.975Z,9.10
2019-04-19T00:18:20.073Z,9.08
2019-04-19T00:19:44.415Z,9.04
2019-04-19T00:21:03.007Z,9.03
2019-04-19T00:23:13.479Z,9.00
2019-04-19T00:24:14.382Z,9.00
2019-04-19T00:25:23.922Z,8.96
2019-04-19T00:26:35.891Z,8.95
2019-04-19T00:27:51.708Z,8.96
2019-04-19T00:29:00.960Z,8.93
2019-04-19T00:30:18.037Z,8.91
2019-04-19T00:31:31.760Z,8.90
2019-04-19T00:32:41.369Z,8.90
2019-04-19T00:33:45.533Z,8.86
2019-04-19T00:34:50.599Z,8.86
2019-04-19T00:36:02.763Z,8.85
2019-04-19T00:37:12.231Z,8.86
2019-04-19T00:38:40.524Z,8.85
2019-04-19T00:39:48.815Z,8.84
2019-04-19T00:41:04.042Z,8.86
2019-04-19T00:42:10.387Z,8.86
2019-04-19T00:43:28.161Z,8.86
2019-04-19T00:44:43.071Z,8.86
2019-04-19T00:45:43.143Z,8.85
2019-04-19T00:47:01.441Z,8.84
2019-04-19T00:48:02.805Z,8.82
2019-04-19T00:49:14.748Z,8.81
2019-04-19T00:50:22.421Z,8.79
2019-04-19T00:51:40.897Z,8.78
2019-04-19T00:52:51.851Z,8.77
2019-04-19T00:53:55.801Z,8.74
2019-04-19T00:55:04.298Z,8.72
2019-04-19T00:56:13.501Z,8.70
2019-04-19T00:57:26.749Z,8.69
2019-04-19T00:58:31.478Z,8.66
2019-04-19T00:59:43.340Z,8.64
2019-04-19T01:00:49.649Z,8.63
2019-04-19T01:02:07.406Z,8.60
2019-04-19T01:03:14.283Z,8.59
2019-04-19T01:04:25.771Z,8.56
2019-04-19T01:05:42.424Z,8.53
2019-04-19T01:06:49.882Z,8.50
2019-04-19T01:07:54.313Z,8.48
2019-04-19T01:09:22.731Z,8.44
2019-04-19T01:10:31.365Z,8.41
2019-04-19T01:11:35.973Z,8.37
2019-04-19T01:12:52.517Z,8.35
2019-04-19T01:14:00.970Z,8.31
2019-04-19T01:15:10.646Z,8.27
2019-04-19T01:16:21.162Z,8.24
2019-04-19T01:17:34.887Z,8.19
2019-04-19T01:18:43.319Z,8.15
2019-04-19T01:19:47.996Z,8.10
2019-04-19T01:20:54.208Z,8.05
2019-04-19T01:22:11.806Z,8.03
2019-04-19T01:23:17.057Z,7.99
2019-04-19T01:24:33.334Z,7.96
2019-04-19T01:25:37.168Z,7.93
2019-04-19T01:26:51.017Z,7.89
2019-04-19T01:28:06.192Z,7.85
2019-04-19T01:29:12.418Z,7.80
2019-04-19T01:30:26.607Z,7.76
2019-04-19T01:31:32.224Z,7.73
2019-04-19T01:32:49.607Z,7.70
2019-04-19T01:33:54.594Z,7.68
2019-04-19T01:35:11.447Z,7.61
2019-04-19T01:36:18.949Z,7.59
2019-04-19T01:37:28.275Z,7.56
2019-04-19T01:38:40.933Z,7.52
2019-04-19T01:40:05.904Z,7.50
2019-04-19T01:41:11.873Z,7.46
2019-04-19T01:42:26.478Z,7.42
2019-04-19T01:43:40.921Z,7.38
2019-04-19T01:44:49.634Z,7.34
2019-04-19T01:46:01.012Z,7.32
2019-04-19T01:47:07.883Z,7.31
2019-04-19T01:48:25.980Z,7.28
2019-04-19T01:49:23.270Z,7.25
2019-04-19T01:50:47.602Z,7.22
2019-04-19T01:51:53.090Z,7.22
2019-04-19T01:53:09.712Z,7.18
2019-04-19T01:54:16.335Z,7.16
2019-04-19T01:55:16.921Z,7.15
2019-04-19T01:56:21.320Z,7.12
2019-04-19T01:57:30.454Z,7.09
2019-04-19T01:58:48.110Z,7.08
2019-04-19T01:59:55.412Z,7.05
2019-04-19T02:01:07.792Z,7.05
2019-04-19T02:02:17.454Z,7.01
2019-04-19T02:03:33.425Z,6.98
2019-04-19T02:04:37.693Z,6.97
2019-04-19T02:05:52.720Z,6.93
2019-04-19T02:06:56.855Z,6.91
2019-04-19T02:08:11.115Z,6.90
2019-04-19T02:09:30.342Z,6.88
2019-04-19T02:10:40.639Z,6.87
2019-04-19T02:11:50.476Z,6.85
2019-04-19T02:13:02.888Z,6.83
2019-04-19T02:14:08.638Z,6.82
2019-04-19T02:15:19.491Z,6.80
2019-04-19T02:16:26.471Z,6.76
2019-04-19T02:17:41.446Z,6.75
2019-04-19T02:18:45.309Z,6.73
2019-04-19T02:20:01.138Z,6.70
2019-04-19T02:21:06.755Z,6.66
2019-04-19T02:22:22.778Z,6.66
2019-04-19T02:23:28.254Z,6.66
2019-04-19T02:24:45.317Z,6.63
2019-04-19T02:25:52.605Z,6.63
2019-04-19T02:27:04.744Z,6.64
2019-04-19T02:28:15.920Z,6.64
2019-04-19T02:29:26.590Z,6.63
2019-04-19T02:30:48.047Z,6.61
2019-04-19T02:32:24.760Z,6.61
2019-04-19T02:33:27.647Z,6.58
2019-04-19T02:35:47.904Z,6.57
2019-04-19T02:37:00.566Z,6.58
2019-04-19T02:38:03.771Z,6.56
2019-04-19T02:41:34.645Z,6.56
2019-04-19T02:42:44.508Z,6.57
2019-04-19T02:44:00.919Z,6.58
2019-04-19T02:48:48.073Z,6.67
2019-04-19T02:50:12.987Z,6.71
2019-04-19T02:51:17.446Z,6.75
2019-04-19T02:53:26.313Z,6.82
2019-04-19T02:57:02.081Z,6.95
2019-04-19T02:59:30.834Z,7.02
2019-04-19T03:00:39.576Z,7.05
2019-04-19T03:01:44.832Z,7.07
2019-04-19T03:02:53.245Z,7.11
2019-04-19T03:04:15.929Z,7.13
2019-04-19T03:06:13.334Z,7.17
2019-04-19T03:07:09.139Z,7.19
2019-04-19T03:08:18.648Z,7.21
2019-04-19T03:09:34.685Z,7.22
2019-04-19T03:10:53.688Z,7.24
2019-04-19T03:12:03.505Z,7.25
2019-04-19T03:13:19.954Z,7.27
2019-04-19T03:14:24.551Z,7.28
2019-04-19T03:15:44.150Z,7.29
2019-04-19T03:16:51.142Z,7.31
2019-04-19T03:18:03.618Z,7.33
2019-04-19T03:19:09.462Z,7.34
2019-04-19T03:20:24.391Z,7.35
2019-04-19T03:21:31.935Z,7.36
2019-04-19T03:22:46.950Z,7.36
2019-04-19T03:23:56.620Z,7.36
2019-04-19T03:25:06.586Z,7.38
2019-04-19T03:26:17.159Z,7.38
2019-04-19T03:27:17.952Z,7.38
2019-04-19T03:28:34.102Z,7.39
2019-04-19T03:29:38.835Z,7.40
2019-04-19T03:31:20.727Z,7.41
2019-04-19T03:32:35.299Z,7.42
2019-04-19T03:34:51.409Z,7.41
2019-04-19T03:35:49.883Z,7.41
2019-04-19T03:36:50.399Z,7.41
2019-04-19T03:38:06.954Z,7.41
2019-04-19T03:39:23.174Z,7.43
2019-04-19T03:40:34.741Z,7.42
2019-04-19T03:42:51.579Z,7.41
2019-04-19T03:44:03.793Z,7.39
2019-04-19T03:45:13.805Z,7.38
2019-04-19T03:46:19.039Z,7.36
2019-04-19T03:47:42.512Z,7.34
2019-04-19T03:48:43.870Z,7.32
2019-04-19T03:49:52.397Z,7.31
2019-04-19T03:51:18.480Z,7.31
2019-04-19T03:52:21.907Z,7.30
2019-04-19T03:53:34.729Z,7.30
2019-04-19T03:54:33.364Z,7.29
2019-04-19T03:55:57.804Z,7.28
2019-04-19T03:56:59.238Z,7.28
2019-04-19T03:58:01.379Z,7.29
2019-04-19T03:59:03.454Z,7.28
2019-04-19T04:00:15.303Z,7.28
2019-04-19T04:01:29.818Z,7.25
2019-04-19T04:02:41.128Z,7.25
2019-04-19T04:03:49.446Z,7.24
2019-04-19T04:05:02.646Z,7.23
2019-04-19T04:06:08.440Z,7.21
2019-04-19T04:07:22.806Z,7.19
2019-04-19T04:08:32.359Z,7.19
2019-04-19T04:09:46.797Z,7.18
2019-04-19T04:10:52.085Z,7.19
2019-04-19T04:12:18.406Z,7.19
2019-04-19T04:13:25.535Z,7.17
2019-04-19T04:14:32.033Z,7.16
2019-04-19T04:15:47.900Z,7.14
2019-04-19T04:16:49.022Z,7.12
2019-04-19T04:17:56.390Z,7.11
2019-04-19T04:19:06.780Z,7.09
2019-04-19T04:20:17.788Z,7.07
2019-04-19T04:21:34.493Z,7.07
2019-04-19T04:22:43.532Z,7.07
2019-04-19T04:24:02.327Z,7.06
2019-04-19T04:25:09.410Z,7.06
2019-04-19T04:26:14.770Z,7.04
2019-04-19T04:27:38.988Z,7.05
2019-04-19T04:28:50.356Z,7.04
2019-04-19T04:29:57.358Z,7.04
2019-04-19T04:31:05.837Z,7.04
2019-04-19T04:32:15.747Z,7.04
2019-04-19T04:33:30.103Z,7.04
2019-04-19T04:34:38.530Z,7.03
2019-04-19T04:35:53.322Z,7.04
2019-04-19T04:37:04.845Z,7.02
2019-04-19T04:38:10.374Z,7.00
2019-04-19T04:39:11.248Z,6.99
2019-04-19T04:40:21.116Z,7.01
2019-04-19T04:41:33.265Z,7.00
2019-04-19T04:42:58.709Z,6.99
2019-04-19T04:44:13.486Z,6.97
2019-04-19T04:45:39.889Z,6.95
2019-04-19T04:46:38.825Z,6.96
2019-04-19T04:47:43.539Z,6.93
2019-04-19T04:48:55.302Z,6.92
2019-04-19T04:50:11.300Z,6.92
2019-04-19T04:51:15.396Z,6.90
2019-04-19T04:52:15.170Z,6.91
2019-04-19T04:53:21.334Z,6.90
2019-04-19T04:54:31.379Z,6.90
2019-04-19T04:55:46.393Z,6.90
2019-04-19T04:57:02.253Z,6.89
2019-04-19T04:58:06.652Z,6.90
2019-04-19T04:59:18.916Z,6.92
2019-04-19T05:00:32.007Z,6.96
2019-04-19T05:01:47.584Z,6.99
2019-04-19T05:03:03.826Z,7.04
2019-04-19T05:04:12.786Z,7.07
2019-04-19T05:05:25.864Z,7.12
2019-04-19T05:06:35.343Z,7.18
2019-04-19T05:07:52.661Z,7.22
2019-04-19T05:08:59.340Z,7.27
2019-04-19T05:10:12.563Z,7.31
2019-04-19T05:11:22.759Z,7.37
2019-04-19T05:12:44.606Z,7.43
2019-04-19T05:13:43.729Z,7.47
2019-04-19T05:14:48.972Z,7.53
2019-04-19T05:16:06.654Z,7.59
2019-04-19T05:17:27.552Z,7.64
2019-04-19T05:18:24.835Z,7.71
2019-04-19T05:19:41.618Z,7.76
2019-04-19T05:20:45.967Z,7.83
2019-04-19T05:21:57.632Z,7.87
2019-04-19T05:23:12.264Z,7.92
2019-04-19T05:24:21.092Z,7.97
2019-04-19T05:25:37.357Z,8.03
2019-04-19T05:26:52.617Z,8.08
2019-04-19T05:27:55.296Z,8.12
2019-04-19T05:28:59.748Z,8.17
2019-04-19T05:29:57.839Z,8.21
2019-04-19T05:31:10.674Z,8.26
2019-04-19T05:32:25.623Z,8.30
2019-04-19T05:33:44.074Z,8.33
2019-04-19T05:34:58.677Z,8.38
2019-04-19T05:36:11.108Z,8.43
2019-04-19T05:37:14.978Z,8.48
2019-04-19T05:38:30.450Z,8.51
2019-04-19T05:39:41.334Z,8.56
2019-04-19T05:40:47.465Z,8.60
2019-04-19T05:41:58.853Z,8.64
2019-04-19T05:43:17.392Z,8.70
2019-04-19T05:44:31.204Z,8.75
2019-04-19T05:45:38.008Z,8.79
2019-04-19T05:46:51.740Z,8.84
2019-04-19T05:47:49.265Z,8.89
2019-04-19T05:49:02.674Z,8.94
2019-04-19T05:50:23.435Z,8.97
2019-04-19T05:51:35.811Z,9.01
2019-04-19T05:52:39.435Z,9.04
2019-04-19T05:53:39.468Z,9.06
2019-04-19T05:54:43.011Z,9.11
2019-04-19T05:55:52.891Z,9.14
2019-04-19T05:57:25.642Z,9.17
2019-04-19T05:58:21.406Z,9.21
2019-04-19T05:59:37.998Z,9.24
2019-04-19T06:00:51.843Z,9.27
2019-04-19T06:02:03.998Z,9.29
2019-04-19T06:03:13.463Z,9.34
2019-04-19T06:04:26.470Z,9.39
2019-04-19T06:05:43.314Z,9.41
2019-04-19T06:06:53.941Z,9.44
2019-04-19T06:07:54.859Z,9.48
2019-04-19T06:08:54.074Z,9.53
2019-04-19T06:10:06.428Z,9.59
2019-04-19T06:11:21.616Z,9.64
2019-04-19T06:12:28.734Z,9.67
2019-04-19T06:13:42.452Z,9.72
2019-04-19T06:15:10.385Z,9.76
2019-04-19T06:16:15.443Z,9.81
2019-04-19T06:17:24.897Z,9.84
2019-04-19T06:18:31.572Z,9.88
2019-04-19T06:19:44.539Z,9.93
2019-04-19T06:21:04.167Z,9.98
2019-04-19T06:22:07.042Z,10.02
2019-04-19T06:23:25.237Z,10.07
2019-04-19T06:24:31.670Z,10.14
2019-04-19T06:25:57.236Z,10.19
2019-04-19T06:27:00.813Z,10.26
2019-04-19T06:28:15.463Z,10.31
2019-04-19T06:29:14.882Z,10.36
2019-04-19T06:30:27.708Z,10.43
2019-04-19T06:31:39.442Z,10.47
2019-04-19T06:32:49.538Z,10.52
2019-04-19T06:34:01.484Z,10.57
2019-04-19T06:35:05.390Z,10.64
2019-04-19T06:36:06.011Z,10.69
2019-04-19T06:37:19.328Z,10.76
2019-04-19T06:38:24.787Z,10.82
2019-04-19T06:39:35.358Z,10.90
2019-04-19T06:40:55.529Z,10.96
2019-04-19T06:42:02.624Z,11.02
2019-04-19T06:43:14.264Z,11.07
2019-04-19T06:44:43.556Z,11.13
2019-04-19T06:45:49.187Z,11.19
2019-04-19T06:47:59.114Z,11.26
2019-04-19T06:49:11.531Z,11.33
2019-04-19T06:50:15.212Z,11.38
2019-04-19T06:51:33.326Z,11.43
2019-04-19T06:52:37.937Z,11.48
2019-04-19T06:53:53.871Z,11.52
2019-04-19T06:54:57.870Z,11.56
2019-04-19T06:56:16.315Z,11.61
2019-04-19T06:57:27.340Z,11.65
2019-04-19T06:58:39.179Z,11.68
2019-04-19T06:59:55.118Z,11.75
2019-04-19T07:01:04.553Z,11.81
2019-04-19T07:02:03.977Z,11.86
2019-04-19T07:03:14.765Z,11.94
2019-04-19T07:04:26.098Z,12.02
2019-04-19T07:05:47.801Z,12.07
2019-04-19T07:07:09.688Z,12.11
2019-04-19T07:08:30.055Z,12.16
2019-04-19T07:09:37.135Z,12.20
2019-04-19T07:11:56.476Z,12.26
2019-04-19T07:13:03.056Z,12.27
2019-04-19T07:14:03.938Z,12.29
2019-04-19T07:15:42.401Z,12.32
2019-04-19T07:16:40.909Z,12.36
2019-04-19T07:17:46.001Z,12.41
2019-04-19T07:18:49.784Z,12.46
2019-04-19T07:20:03.157Z,12.49
2019-04-19T07:21:26.322Z,12.53
2019-04-19T07:22:27.938Z,12.58
2019-04-19T07:23:46.456Z,12.63
2019-04-19T07:25:01.468Z,12.66
2019-04-19T07:26:11.726Z,12.67
2019-04-19T07:27:12.501Z,12.72
2019-04-19T07:28:14.577Z,12.76
2019-04-19T07:29:17.641Z,12.80
2019-04-19T07:30:28.839Z,12.86
2019-04-19T07:31:40.182Z,12.88
2019-04-19T07:32:59.632Z,12.92
2019-04-19T07:34:08.777Z,12.97
2019-04-19T07:35:36.951Z,13.01
2019-04-19T07:36:44.653Z,13.09
2019-04-19T07:37:52.224Z,13.16
2019-04-19T07:39:03.562Z,13.21
2019-04-19T07:40:17.540Z,13.28
2019-04-19T07:41:24.013Z,13.32
2019-04-19T07:42:33.691Z,13.35
2019-04-19T07:43:44.572Z,13.37
2019-04-19T07:44:50.613Z,13.42
2019-04-19T07:46:08.288Z,13.47
2019-04-19T07:47:13.608Z,13.52
2019-04-19T07:48:17.300Z,13.57
2019-04-19T07:49:23.318Z,13.62
2019-04-19T07:51:54.754Z,13.71
2019-04-19T07:52:58.725Z,13.75
2019-04-19T07:54:13.600Z,13.80
2019-04-19T07:55:17.819Z,13.85
2019-04-19T07:56:38.996Z,13.89
2019-04-19T07:58:12.217Z,13.95
2019-04-19T07:59:13.146Z,14.04
2019-04-19T08:00:36.879Z,14.13
2019-04-19T08:01:45.349Z,14.20
2019-04-19T08:02:49.672Z,14.28
2019-04-19T08:05:11.435Z,14.39
2019-04-19T08:07:41.429Z,14.57
2019-04-19T08:11:08.009Z,14.85
2019-04-19T08:12:18.531Z,14.94
2019-04-19T08:15:55.115Z,15.17
2019-04-19T08:28:31.166Z,23.15
2019-04-19T08:29:43.853Z,28.48
2019-04-19T08:30:50.407Z,31.64
2019-04-19T08:31:55.778Z,33.57
2019-04-19T08:33:06.686Z,34.60
2019-04-19T08:34:20.903Z,34.24
2019-04-19T08:35:31.929Z,33.56
2019-04-19T08:36:47.490Z,34.91
2019-04-19T08:37:52.182Z,36.49
2019-04-19T08:39:17.117Z,37.27
2019-04-19T08:40:32.348Z,37.95
2019-04-19T08:41:39.786Z,38.26
2019-04-19T08:42:54.084Z,38.22
2019-04-19T08:44:00.466Z,38.15
2019-04-19T08:45:01.736Z,38.17
2019-04-19T08:46:09.051Z,38.30
2019-04-19T08:47:27.845Z,38.71
2019-04-19T08:48:41.310Z,39.28
2019-04-19T08:49:44.834Z,39.69
2019-04-19T08:50:55.039Z,40.01
2019-04-19T08:52:07.836Z,40.31
2019-04-19T08:53:33.545Z,40.81
2019-04-19T08:54:47.711Z,41.10
2019-04-19T08:55:58.208Z,41.55
2019-04-19T08:56:57.437Z,42.12
2019-04-19T08:58:07.116Z,42.49
2019-04-19T09:00:51.815Z,43.00
2019-04-19T09:01:56.082Z,43.28
2019-04-19T09:03:00.193Z,43.66
2019-04-19T09:04:20.253Z,43.64
2019-04-19T09:05:27.283Z,43.76
2019-04-19T09:07:30.526Z,43.99
2019-04-19T09:08:05.654Z,44.16
2019-04-19T09:08:59.812Z,44.23
2019-04-19T09:11:26.272Z,44.07
2019-04-19T09:12:34.281Z,44.18
2019-04-19T09:13:52.285Z,44.25
2019-04-19T09:15:02.255Z,44.22
2019-04-19T09:16:11.350Z,44.26
2019-04-19T09:17:33.001Z,44.43
2019-04-19T09:18:45.649Z,44.34
2019-04-19T09:20:58.796Z,44.68
2019-04-19T09:22:11.169Z,44.82
2019-04-19T09:23:21.985Z,45.03
2019-04-19T09:24:31.116Z,44.97
2019-04-19T09:25:41.436Z,44.81
2019-04-19T09:26:58.791Z,44.85
2019-04-19T09:28:16.215Z,45.03
2019-04-19T09:29:32.280Z,45.18
2019-04-19T09:30:39.399Z,45.36
2019-04-19T09:31:42.096Z,45.18
2019-04-19T09:32:41.774Z,44.87
2019-04-19T09:33:54.639Z,45.05
2019-04-19T09:35:09.241Z,45.48
2019-04-19T09:36:20.070Z,45.69
2019-04-19T09:37:42.772Z,46.09
2019-04-19T09:38:55.564Z,46.34
2019-04-19T09:40:03.060Z,46.52
2019-04-19T09:41:16.516Z,46.91
2019-04-19T09:42:33.585Z,46.71
2019-04-19T09:43:42.441Z,47.06
2019-04-19T09:44:47.982Z,47.39
2019-04-19T09:45:53.311Z,47.62
2019-04-19T09:47:06.054Z,47.88
2019-04-19T09:48:36.508Z,48.02
2019-04-19T09:49:44.066Z,47.75
2019-04-19T09:50:54.952Z,47.05
2019-04-19T09:52:13.458Z,46.97
2019-04-19T09:53:32.127Z,47.40
2019-04-19T09:54:39.079Z,47.79
2019-04-19T09:55:49.870Z,48.39
2019-04-19T09:56:57.942Z,48.58
2019-04-19T09:58:14.261Z,48.84
2019-04-19T09:59:17.244Z,48.18
2019-04-19T10:00:23.767Z,48.24
2019-04-19T10:01:37.093Z,49.05
2019-04-19T10:02:50.775Z,50.10
2019-04-19T10:03:59.969Z,50.65
2019-04-19T10:05:08.075Z,50.64
2019-04-19T10:06:20.705Z,50.91
2019-04-19T10:07:32.652Z,51.39
2019-04-19T10:08:45.737Z,51.38
2019-04-19T10:10:03.987Z,51.80
2019-04-19T10:11:10.511Z,51.75
2019-04-19T10:12:21.966Z,51.58
2019-04-19T10:13:34.373Z,51.64
2019-04-19T10:14:46.481Z,51.44
2019-04-19T10:15:58.761Z,51.59
2019-04-19T10:17:12.292Z,51.84
2019-04-19T10:18:23.312Z,51.68
2019-04-19T10:19:36.797Z,52.09
2019-04-19T10:20:48.889Z,52.20
2019-04-19T10:22:00.374Z,52.43
2019-04-19T10:23:13.316Z,52.38
2019-04-19T10:24:26.444Z,52.37
2019-04-19T10:25:40.854Z,51.87
2019-04-19T10:26:50.486Z,51.96
2019-04-19T10:28:01.814Z,52.16
2019-04-19T10:29:22.869Z,52.38
2019-04-19T10:30:26.590Z,52.04
2019-04-19T10:31:39.720Z,51.85
2019-04-19T10:32:53.265Z,51.45
2019-04-19T10:34:05.912Z,51.14
2019-04-19T10:35:17.491Z,50.35
2019-04-19T10:36:28.958Z,49.77
2019-04-19T10:37:41.862Z,48.66
2019-04-19T10:38:56.523Z,47.53
2019-04-19T10:40:05.995Z,46.55
2019-04-19T10:41:19.699Z,46.30
2019-04-19T10:42:31.460Z,45.89
2019-04-19T10:43:43.318Z,45.00
2019-04-19T10:44:56.256Z,44.20
2019-04-19T10:47:21.141Z,43.24
2019-04-19T10:48:34.737Z,42.77
2019-04-19T10:49:51.760Z,42.44
2019-04-19T10:50:59.509Z,42.30
2019-04-19T10:52:10.813Z,42.27
2019-04-19T10:53:24.112Z,41.93
2019-04-19T10:54:36.326Z,41.51
2019-04-19T10:55:48.067Z,41.44
2019-04-19T10:57:00.497Z,41.40
2019-04-19T10:58:12.922Z,41.30
2019-04-19T10:59:26.642Z,41.22
2019-04-19T11:00:39.736Z,41.15
2019-04-19T11:01:52.162Z,40.77
2019-04-19T11:03:05.249Z,40.60
2019-04-19T11:04:17.155Z,40.45
2019-04-19T11:05:29.037Z,40.31
2019-04-19T11:06:41.747Z,40.12
2019-04-19T11:07:53.787Z,39.95
2019-04-19T11:09:06.819Z,39.88
2019-04-19T11:10:19.759Z,39.52
2019-04-19T11:11:31.871Z,38.92
2019-04-19T11:12:44.743Z,38.60
2019-04-19T11:13:56.202Z,38.43
2019-04-19T11:15:08.728Z,38.44
2019-04-19T11:16:21.806Z,38.44
2019-04-19T11:17:34.288Z,38.25
2019-04-19T11:18:47.642Z,38.19
2019-04-19T11:20:14.513Z,38.37
2019-04-19T11:21:11.766Z,38.41
2019-04-19T11:22:24.251Z,38.33
2019-04-19T11:23:37.866Z,38.23
2019-04-19T11:24:50.032Z,38.31
2019-04-19T11:26:03.047Z,38.41
2019-04-19T11:27:15.203Z,38.65
2019-04-19T11:28:27.087Z,38.54
2019-04-19T11:29:40.443Z,38.23
2019-04-19T11:30:53.331Z,38.22
2019-04-19T11:32:06.079Z,38.54
2019-04-19T11:33:19.023Z,38.50
2019-04-19T11:34:31.359Z,38.91
2019-04-19T11:35:43.563Z,39.53
2019-04-19T11:36:55.955Z,39.72
2019-04-19T11:38:08.959Z,40.25
2019-04-19T11:39:21.182Z,40.70
2019-04-19T11:40:33.526Z,41.06
2019-04-19T11:41:47.214Z,40.38
2019-04-19T11:42:59.502Z,39.66
2019-04-19T11:44:17.430Z,39.17
2019-04-19T11:45:23.862Z,39.36
2019-04-19T11:46:36.115Z,39.40
2019-04-19T11:47:49.136Z,39.75
2019-04-19T11:49:01.734Z,39.91
2019-04-19T11:50:13.764Z,39.22
2019-04-19T11:51:25.810Z,39.80
2019-04-19T11:52:38.229Z,40.28
2019-04-19T11:53:50.614Z,40.42
2019-04-19T11:55:04.606Z,40.67
2019-04-19T11:56:16.435Z,41.61
2019-04-19T11:57:28.321Z,42.26
2019-04-19T11:58:40.388Z,42.19
2019-04-19T11:59:54.575Z,42.61
2019-04-19T12:01:05.735Z,42.27
2019-04-19T12:02:17.920Z,42.88
2019-04-19T12:03:30.042Z,42.81
2019-04-19T12:04:42.052Z,42.20
2019-04-19T12:05:55.943Z,40.46
2019-04-19T12:07:08.211Z,37.41
2019-04-19T12:08:20.442Z,35.79
2019-04-19T12:09:32.476Z,34.36
2019-04-19T12:10:44.420Z,33.99
2019-04-19T12:11:58.196Z,33.61
2019-04-19T12:13:10.984Z,33.54
2019-04-19T12:14:25.225Z,33.89
2019-04-19T12:15:35.873Z,34.36
2019-04-19T12:16:47.578Z,35.22
2019-04-19T12:18:00.026Z,35.96
2019-04-19T12:19:12.059Z,36.81
2019-04-19T12:20:24.774Z,36.87
2019-04-19T12:21:36.972Z,36.44
2019-04-19T12:22:49.993Z,36.04
2019-04-19T12:24:01.032Z,36.51
2019-04-19T12:25:13.475Z,37.15
2019-04-19T12:26:25.798Z,37.61
2019-04-19T12:27:39.371Z,37.44
2019-04-19T12:28:51.280Z,37.57
2019-04-19T12:30:02.803Z,37.32
2019-04-19T12:31:15.688Z,37.89
2019-04-19T12:32:27.710Z,37.13
2019-04-19T12:33:39.770Z,38.11
2019-04-19T12:34:52.961Z,38.31
2019-04-19T12:36:05.501Z,38.63
2019-04-19T12:37:19.404Z,38.87
2019-04-19T12:38:33.220Z,39.20
2019-04-19T12:39:43.476Z,39.44
2019-04-19T12:40:56.141Z,39.34
2019-04-19T12:42:08.152Z,39.39
2019-04-19T12:43:20.756Z,39.80
2019-04-19T12:44:33.245Z,39.92
2019-04-19T12:45:47.723Z,40.13
2019-04-19T12:46:57.536Z,40.01
2019-04-19T12:48:09.920Z,40.17
2019-04-19T12:49:22.683Z,40.16
2019-04-19T12:50:36.997Z,40.34
2019-04-19T12:51:48.042Z,40.63
2019-04-19T12:53:00.072Z,40.71
2019-04-19T12:54:12.121Z,40.60
2019-04-19T12:55:24.070Z,40.77
2019-04-19T12:56:36.306Z,40.91
2019-04-19T12:57:49.914Z,41.02
2019-04-19T12:59:01.958Z,40.43
2019-04-19T13:00:14.288Z,40.76
2019-04-19T13:01:27.916Z,41.13
2019-04-19T13:02:39.964Z,40.94
2019-04-19T13:03:52.510Z,40.98
2019-04-19T13:05:04.563Z,41.01
2019-04-19T13:06:17.500Z,40.84
2019-04-19T13:07:28.978Z,40.70
2019-04-19T13:08:41.201Z,40.05
2019-04-19T13:09:53.264Z,40.15
2019-04-19T13:11:07.041Z,40.45
2019-04-19T13:12:19.000Z,40.90
2019-04-19T13:13:31.756Z,40.96
2019-04-19T13:14:43.844Z,40.43
2019-04-19T13:15:56.548Z,39.57
2019-04-19T13:17:08.328Z,38.36
2019-04-19T13:18:20.361Z,37.40
2019-04-19T13:19:33.300Z,37.70
2019-04-19T13:20:46.019Z,37.04
2019-04-19T13:21:58.536Z,36.05
2019-04-19T13:23:10.469Z,36.00
2019-04-19T13:24:22.523Z,36.20
2019-04-19T13:25:35.282Z,36.72
2019-04-19T13:26:47.427Z,36.47
2019-04-19T13:28:01.252Z,36.43
2019-04-19T13:29:11.486Z,36.42
2019-04-19T13:30:31.469Z,36.07
2019-04-19T13:31:36.574Z,35.78
2019-04-19T13:32:47.771Z,35.57
2019-04-19T13:34:00.563Z,35.30
2019-04-19T13:35:13.041Z,34.70
2019-04-19T13:36:24.922Z,34.15
2019-04-19T13:37:37.010Z,33.95
2019-04-19T13:38:49.226Z,33.81
2019-04-19T13:40:02.036Z,33.61
2019-04-19T13:41:14.561Z,32.95
2019-04-19T13:42:26.770Z,32.51
2019-04-19T13:43:38.645Z,32.24
2019-04-19T13:44:50.626Z,32.44
2019-04-19T13:46:04.398Z,32.60
2019-04-19T13:47:16.447Z,32.67
2019-04-19T13:48:28.292Z,32.04
2019-04-19T13:49:40.321Z,31.86
2019-04-19T13:50:52.428Z,32.00
2019-04-19T13:52:04.688Z,31.98
2019-04-19T13:53:16.940Z,31.73
2019-04-19T13:54:30.320Z,31.65
2019-04-19T13:55:42.495Z,31.64
2019-04-19T13:56:55.439Z,31.56
2019-04-19T13:58:07.385Z,31.36
2019-04-19T13:59:20.099Z,31.42
2019-04-19T14:00:31.741Z,31.08
2019-04-19T14:01:43.978Z,31.28
2019-04-19T14:02:56.216Z,31.48
2019-04-19T14:04:08.504Z,31.63
2019-04-19T14:05:20.702Z,31.46
2019-04-19T14:06:32.899Z,31.39
2019-04-19T14:07:45.360Z,31.44
2019-04-19T14:08:57.557Z,31.33
2019-04-19T14:10:09.602Z,30.70
2019-04-19T14:11:21.455Z,29.95
2019-04-19T14:12:33.431Z,30.40
2019-04-19T14:13:50.845Z,30.65
2019-04-19T14:14:57.438Z,30.58
2019-04-19T14:16:09.431Z,29.64
2019-04-19T14:17:22.033Z,28.57
2019-04-19T14:18:33.344Z,28.81
2019-04-19T14:19:45.296Z,29.61
2019-04-19T14:20:57.603Z,30.10
2019-04-19T14:22:09.226Z,30.41
2019-04-19T14:23:21.680Z,30.70
2019-04-19T14:24:33.421Z,30.72
2019-04-19T14:25:45.391Z,30.90
2019-04-19T14:26:58.919Z,30.49
2019-04-19T14:28:09.447Z,30.52
2019-04-19T14:29:21.420Z,30.63
2019-04-19T14:30:33.318Z,30.64
2019-04-19T14:31:46.219Z,30.68
2019-04-19T14:32:57.947Z,30.67
2019-04-19T14:34:09.138Z,30.45
2019-04-19T14:35:21.741Z,29.57
2019-04-19T14:36:34.091Z,29.37
2019-04-19T14:37:46.061Z,29.10
2019-04-19T14:38:58.307Z,29.50
2019-04-19T14:40:10.205Z,29.76
2019-04-19T14:41:21.261Z,29.78
2019-04-19T14:42:33.251Z,29.50
2019-04-19T14:43:45.239Z,29.39
2019-04-19T14:44:58.229Z,29.11
2019-04-19T14:46:10.960Z,29.35
2019-04-19T14:47:21.674Z,29.46
2019-04-19T14:48:36.952Z,29.44
2019-04-19T14:49:47.091Z,29.50
2019-04-19T14:51:03.183Z,29.55
2019-04-19T14:52:10.255Z,29.49
2019-04-19T14:53:22.384Z,29.31
2019-04-19T14:54:35.062Z,29.07
2019-04-19T14:55:46.244Z,28.84
2019-04-19T14:56:58.672Z,28.64
2019-04-19T14:58:09.772Z,28.46
2019-04-19T14:59:21.603Z,28.23
2019-04-19T15:00:34.555Z,28.04
2019-04-19T15:01:45.230Z,27.95
2019-04-19T15:02:58.717Z,27.77
2019-04-19T15:04:09.225Z,27.61
2019-04-19T15:05:21.501Z,27.62
2019-04-19T15:06:35.699Z,27.62
2019-04-19T15:07:46.454Z,27.55
2019-04-19T15:08:57.750Z,27.42
2019-04-19T15:10:11.455Z,27.19
2019-04-19T15:11:21.951Z,26.79
2019-04-19T15:12:34.397Z,26.69
2019-04-19T15:13:45.068Z,26.40
2019-04-19T15:14:57.656Z,26.16
2019-04-19T15:16:08.590Z,25.88
2019-04-19T15:17:19.802Z,25.87
2019-04-19T15:18:31.921Z,25.78
2019-04-19T15:19:43.922Z,25.83
2019-04-19T15:21:02.966Z,25.76
2019-04-19T15:22:06.229Z,25.57
2019-04-19T15:23:18.315Z,25.27
2019-04-19T15:24:29.024Z,24.91
2019-04-19T15:25:40.512Z,24.73
2019-04-19T15:26:52.467Z,24.79
2019-04-19T15:28:04.510Z,24.84
2019-04-19T15:29:14.641Z,24.85
2019-04-19T15:30:25.995Z,25.11
2019-04-19T15:31:38.395Z,25.23
2019-04-19T15:32:49.067Z,25.24
2019-04-19T15:34:00.828Z,25.36
2019-04-19T15:35:11.960Z,25.44
2019-04-19T15:36:23.838Z,25.44
2019-04-19T15:37:36.024Z,25.52
2019-04-19T15:38:46.499Z,25.54
2019-04-19T15:39:58.086Z,25.53
2019-04-19T15:41:10.218Z,25.41
2019-04-19T15:42:20.505Z,25.38
2019-04-19T15:43:32.577Z,25.39
2019-04-19T15:44:44.803Z,25.39
2019-04-19T15:45:55.155Z,25.34
2019-04-19T15:47:06.535Z,25.29
2019-04-19T15:48:28.540Z,25.23
2019-04-19T15:49:30.144Z,25.18
2019-04-19T15:50:42.996Z,25.17
2019-04-19T15:51:52.137Z,25.16
2019-04-19T15:53:04.156Z,25.14
2019-04-19T15:54:16.305Z,25.05
2019-04-19T15:55:26.418Z,25.07
2019-04-19T15:56:38.211Z,24.90
2019-04-19T15:57:50.178Z,24.63
2019-04-19T15:59:00.857Z,24.36
2019-04-19T16:00:11.958Z,24.17
2019-04-19T16:01:23.714Z,24.00
2019-04-19T16:02:33.997Z,23.90
2019-04-19T16:03:45.868Z,23.84
2019-04-19T16:04:57.715Z,23.75
2019-04-19T16:06:07.787Z,23.66
2019-04-19T16:07:19.807Z,23.49
2019-04-19T16:08:30.623Z,23.44
2019-04-19T16:09:42.043Z,23.49
2019-04-19T16:10:53.086Z,23.47
2019-04-19T16:12:04.322Z,23.47
2019-04-19T16:13:16.005Z,23.44
2019-04-19T16:14:28.182Z,23.41
2019-04-19T16:15:40.110Z,23.32